createdAt,value
2018-12-19T00:01:34.497Z,24.83
2018-12-19T00:04:02.677Z,28.60
2018-12-19T00:06:30.903Z,24.70
2018-12-19T00:09:03.116Z,25.37
2018-12-19T00:11:29.748Z,27.53
2018-12-19T00:13:58.109Z,29.50
2018-12-19T00:16:26.433Z,27.77
2018-12-19T00:18:54.660Z,28.87
2018-12-19T00:21:23.136Z,25.93
2018-12-19T00:23:51.288Z,22.73
2018-12-19T00:26:19.476Z,26.10
2018-12-19T00:28:47.753Z,25.30
2018-12-19T00:31:16.189Z,28.50
2018-12-19T00:33:44.335Z,28.20
2018-12-19T00:36:12.562Z,25.10
2018-12-19T00:38:41.071Z,28.27
2018-12-19T00:41:09.621Z,25.63
2018-12-19T00:43:37.820Z,25.30
2018-12-19T00:46:05.958Z,26.27
2018-12-19T00:48:34.191Z,24.10
2018-12-19T00:51:02.383Z,25.40
2018-12-19T00:53:30.720Z,24.83
2018-12-19T00:55:59.327Z,23.00
2018-12-19T00:58:28.140Z,22.73
2018-12-19T01:00:56.376Z,21.57
2018-12-19T01:03:24.747Z,19.80
2018-12-19T01:05:53.209Z,22.63
2018-12-19T01:08:22.320Z,22.93
2018-12-19T01:10:50.525Z,25.67
2018-12-19T01:13:18.842Z,22.50
2018-12-19T01:15:47.357Z,23.53
2018-12-19T01:18:15.515Z,22.50
2018-12-19T01:20:43.886Z,25.13
2018-12-19T01:23:12.416Z,23.33
2018-12-19T01:25:40.777Z,22.33
2018-12-19T01:28:09.193Z,25.57
2018-12-19T01:30:37.369Z,26.20
2018-12-19T01:33:05.904Z,25.37
2018-12-19T01:35:34.293Z,22.07
2018-12-19T01:38:02.806Z,25.30
2018-12-19T01:40:31.083Z,24.10
2018-12-19T01:42:59.236Z,19.27
2018-12-19T01:45:27.696Z,22.93
2018-12-19T01:47:55.872Z,25.03
2018-12-19T01:50:24.391Z,22.57
2018-12-19T01:52:52.594Z,23.60
2018-12-19T01:55:20.797Z,22.43
2018-12-19T01:57:49.825Z,22.33
2018-12-19T02:00:20.089Z,22.03
2018-12-19T02:02:48.221Z,22.40
2018-12-19T02:05:16.461Z,20.73
2018-12-19T02:07:44.860Z,20.27
2018-12-19T02:10:13.106Z,21.47
2018-12-19T02:12:41.237Z,22.07
2018-12-19T02:15:09.408Z,21.67
2018-12-19T02:17:37.531Z,22.07
2018-12-19T02:20:05.804Z,20.73
2018-12-19T02:22:34.031Z,25.57
2018-12-19T02:25:02.194Z,23.37
2018-12-19T02:27:30.352Z,22.87
2018-12-19T02:29:58.706Z,19.10
2018-12-19T02:32:26.923Z,23.93
2018-12-19T02:34:55.064Z,23.07
2018-12-19T02:37:23.368Z,20.07
2018-12-19T02:39:51.532Z,21.70
2018-12-19T02:42:19.908Z,20.23
2018-12-19T02:44:48.062Z,22.27
2018-12-19T02:47:16.206Z,22.53
2018-12-19T02:49:44.353Z,25.90
2018-12-19T02:52:12.599Z,22.00
2018-12-19T02:54:40.895Z,19.53
2018-12-19T02:57:09.039Z,23.43
2018-12-19T02:59:37.178Z,21.07
2018-12-19T03:02:05.412Z,21.27
2018-12-19T03:04:33.558Z,21.53
2018-12-19T03:07:01.801Z,22.20
2018-12-19T03:09:29.936Z,21.13
2018-12-19T03:11:58.083Z,21.77
2018-12-19T03:14:26.279Z,21.43
2018-12-19T03:16:54.433Z,22.17
2018-12-19T03:19:22.581Z,22.13
2018-12-19T03:21:50.783Z,21.23
2018-12-19T03:24:19.038Z,22.33
2018-12-19T03:26:47.259Z,20.43
2018-12-19T03:29:15.408Z,20.33
2018-12-19T03:31:43.637Z,21.17
2018-12-19T03:34:18.420Z,20.47
2018-12-19T03:36:46.566Z,22.90
2018-12-19T03:39:14.791Z,21.80
2018-12-19T03:41:43.105Z,19.00
2018-12-19T03:44:11.240Z,21.53
2018-12-19T03:46:39.405Z,22.57
2018-12-19T03:49:07.559Z,24.20
2018-12-19T03:51:35.784Z,20.70
2018-12-19T03:54:04.012Z,20.73
2018-12-19T03:56:32.161Z,20.03
2018-12-19T03:59:00.416Z,23.53
2018-12-19T04:01:28.639Z,22.57
2018-12-19T04:03:56.772Z,21.00
2018-12-19T04:06:25.001Z,20.57
2018-12-19T04:08:53.247Z,21.73
2018-12-19T04:11:21.503Z,22.10
2018-12-19T04:13:49.657Z,21.30
2018-12-19T04:16:17.797Z,20.50
2018-12-19T04:18:45.970Z,22.60
2018-12-19T04:21:14.281Z,26.60
2018-12-19T04:23:42.434Z,23.77
2018-12-19T04:26:10.833Z,22.60
2018-12-19T04:28:39.075Z,22.00
2018-12-19T04:31:07.296Z,20.23
2018-12-19T04:33:35.536Z,25.47
2018-12-19T04:36:04.980Z,22.90
2018-12-19T04:38:33.629Z,22.60
2018-12-19T04:41:02.093Z,26.67
2018-12-19T04:43:30.696Z,19.17
2018-12-19T04:45:58.900Z,20.50
2018-12-19T04:48:27.071Z,20.57
2018-12-19T04:50:55.646Z,21.47
2018-12-19T04:53:23.788Z,20.27
2018-12-19T04:55:51.998Z,20.77
2018-12-19T04:58:20.136Z,19.17
2018-12-19T05:00:48.574Z,19.83
2018-12-19T05:03:16.975Z,20.63
2018-12-19T05:05:45.298Z,19.60
2018-12-19T05:08:13.528Z,21.10
2018-12-19T05:10:41.753Z,22.23
2018-12-19T05:13:10.253Z,19.83
2018-12-19T05:15:38.637Z,19.83
2018-12-19T05:18:09.873Z,18.43
2018-12-19T05:20:38.373Z,20.40
2018-12-19T05:23:06.940Z,26.07
2018-12-19T05:25:35.142Z,21.00
2018-12-19T05:28:03.496Z,19.43
2018-12-19T05:30:31.955Z,18.77
2018-12-19T05:33:00.112Z,21.83
2018-12-19T05:35:28.527Z,20.53
2018-12-19T05:37:56.657Z,21.27
2018-12-19T05:40:24.834Z,19.30
2018-12-19T05:42:53.017Z,17.60
2018-12-19T05:45:21.220Z,20.27
2018-12-19T05:47:49.396Z,20.57
2018-12-19T05:50:19.190Z,18.10
2018-12-19T05:52:47.427Z,19.20
2018-12-19T05:55:15.752Z,20.80
2018-12-19T05:57:44.016Z,17.87
2018-12-19T06:00:12.598Z,18.97
2018-12-19T06:02:40.724Z,19.27
2018-12-19T06:05:09.345Z,20.37
2018-12-19T06:07:37.821Z,19.43
2018-12-19T06:10:06.820Z,17.67
2018-12-19T06:12:35.345Z,20.80
2018-12-19T06:15:03.892Z,20.07
2018-12-19T06:17:32.599Z,18.83
2018-12-19T06:20:01.864Z,19.13
2018-12-19T06:22:30.020Z,18.70
2018-12-19T06:24:58.597Z,22.53
2018-12-19T06:27:27.153Z,19.13
2018-12-19T06:29:56.118Z,20.83
2018-12-19T06:32:24.323Z,16.87
2018-12-19T06:34:52.748Z,20.70
2018-12-19T06:37:20.907Z,19.87
2018-12-19T06:39:49.365Z,20.90
2018-12-19T06:42:17.631Z,20.00
2018-12-19T06:44:45.814Z,19.53
2018-12-19T06:47:14.000Z,18.53
2018-12-19T06:49:42.243Z,20.63
2018-12-19T06:52:10.411Z,19.97
2018-12-19T06:54:42.454Z,22.63
2018-12-19T06:57:10.915Z,21.60
2018-12-19T06:59:39.112Z,20.70
2018-12-19T07:02:07.332Z,20.03
2018-12-19T07:04:35.492Z,16.83
2018-12-19T07:07:03.797Z,21.07
2018-12-19T07:09:31.949Z,18.40
2018-12-19T07:12:00.147Z,19.60
2018-12-19T07:14:28.288Z,20.90
2018-12-19T07:16:56.469Z,20.23
2018-12-19T07:19:24.596Z,18.27
2018-12-19T07:21:52.944Z,17.33
2018-12-19T07:24:21.607Z,21.10
2018-12-19T07:26:49.808Z,19.40
2018-12-19T07:29:17.950Z,18.87
2018-12-19T07:31:46.208Z,19.13
2018-12-19T07:34:14.331Z,19.70
2018-12-19T07:36:42.692Z,21.63
2018-12-19T07:39:10.843Z,21.20
2018-12-19T07:41:38.979Z,17.83
2018-12-19T07:44:07.113Z,19.30
2018-12-19T07:46:35.399Z,21.87
2018-12-19T07:49:03.707Z,20.70
2018-12-19T07:51:31.856Z,20.60
2018-12-19T07:53:59.976Z,19.70
2018-12-19T07:56:28.441Z,18.60
2018-12-19T07:58:56.735Z,18.33
2018-12-19T08:01:24.873Z,15.50
2018-12-19T08:03:53.010Z,18.73
2018-12-19T08:06:21.137Z,17.03
2018-12-19T08:08:49.347Z,18.60
2018-12-19T08:11:17.495Z,20.07
2018-12-19T08:13:45.636Z,18.70
2018-12-19T08:16:13.841Z,18.00
2018-12-19T08:18:42.065Z,22.87
2018-12-19T08:21:10.213Z,22.13
2018-12-19T08:23:38.354Z,19.33
2018-12-19T08:26:06.504Z,20.60
2018-12-19T08:28:34.731Z,21.17
2018-12-19T08:31:02.864Z,20.23
2018-12-19T08:33:31.008Z,19.53
2018-12-19T08:35:59.152Z,19.53
2018-12-19T08:38:28.508Z,18.67
2018-12-19T08:40:58.839Z,18.63
2018-12-19T08:43:27.111Z,17.63
2018-12-19T08:45:55.629Z,18.47
2018-12-19T08:48:23.836Z,17.93
2018-12-19T08:50:51.989Z,22.17
2018-12-19T08:53:20.148Z,17.80
2018-12-19T08:55:48.247Z,18.60
2018-12-19T08:58:16.392Z,20.60
2018-12-19T09:00:44.684Z,18.43
2018-12-19T09:03:12.960Z,16.27
2018-12-19T09:05:41.638Z,20.90
2018-12-19T09:08:10.027Z,20.60
2018-12-19T09:10:38.163Z,21.83
2018-12-19T09:13:06.292Z,15.33
2018-12-19T09:15:40.101Z,16.30
2018-12-19T09:18:08.236Z,19.63
2018-12-19T09:20:36.441Z,19.80
2018-12-19T09:23:04.584Z,17.30
2018-12-19T09:25:32.724Z,16.90
2018-12-19T09:28:02.241Z,15.80
2018-12-19T09:30:31.081Z,17.30
2018-12-19T09:32:59.242Z,16.77
2018-12-19T09:35:27.361Z,15.63
2018-12-19T09:37:55.583Z,18.87
2018-12-19T09:40:23.730Z,20.33
2018-12-19T09:42:52.000Z,19.10
2018-12-19T09:45:20.172Z,21.80
2018-12-19T09:47:48.308Z,18.33
2018-12-19T09:50:16.468Z,21.40
2018-12-19T09:52:44.599Z,16.67
2018-12-19T09:55:12.825Z,19.63
2018-12-19T09:57:41.253Z,18.20
2018-12-19T10:00:15.285Z,17.00
2018-12-19T10:02:43.527Z,16.87
2018-12-19T10:05:12.601Z,19.37
2018-12-19T10:07:40.775Z,16.17
2018-12-19T10:10:09.001Z,22.33
2018-12-19T10:12:37.147Z,18.97
2018-12-19T10:15:05.453Z,18.23
2018-12-19T10:17:33.688Z,21.37
2018-12-19T10:20:01.931Z,17.10
2018-12-19T10:22:32.424Z,17.13
2018-12-19T10:25:06.655Z,20.57
2018-12-19T10:27:34.997Z,19.70
2018-12-19T10:30:03.273Z,24.17
2018-12-19T10:32:36.984Z,23.03
2018-12-19T10:35:05.366Z,17.10
2018-12-19T10:37:33.585Z,18.07
2018-12-19T10:40:01.792Z,19.13
2018-12-19T10:42:29.943Z,19.37
2018-12-19T10:44:58.097Z,19.37
2018-12-19T10:47:26.437Z,18.60
2018-12-19T10:49:54.727Z,20.03
2018-12-19T10:52:22.840Z,22.73
2018-12-19T10:54:51.042Z,24.40
2018-12-19T10:57:19.176Z,23.50
2018-12-19T10:59:47.321Z,21.87
2018-12-19T11:02:15.512Z,20.17
2018-12-19T11:04:43.657Z,20.60
2018-12-19T11:07:11.868Z,20.27
2018-12-19T11:09:40.076Z,23.03
2018-12-19T11:12:08.337Z,20.10
2018-12-19T11:14:36.569Z,24.57
2018-12-19T11:17:04.995Z,20.33
2018-12-19T11:19:33.225Z,22.07
2018-12-19T11:22:01.383Z,22.30
2018-12-19T11:24:29.645Z,22.20
2018-12-19T11:26:57.920Z,24.60
2018-12-19T11:29:26.692Z,20.47
2018-12-19T11:31:55.184Z,23.03
2018-12-19T11:34:23.428Z,22.93
2018-12-19T11:36:51.582Z,18.50
2018-12-19T11:39:19.725Z,19.47
2018-12-19T11:41:47.912Z,17.37
2018-12-19T11:44:16.088Z,22.00
2018-12-19T11:46:44.228Z,19.63
2018-12-19T11:49:12.415Z,20.73
2018-12-19T11:51:40.578Z,22.37
2018-12-19T11:54:08.800Z,20.30
2018-12-19T11:56:37.048Z,18.33
2018-12-19T11:59:05.492Z,22.63
2018-12-19T12:01:33.923Z,18.03
2018-12-19T12:04:02.252Z,19.57
2018-12-19T12:06:30.514Z,22.77
2018-12-19T12:08:58.961Z,18.97
2018-12-19T12:11:27.243Z,23.77
2018-12-19T12:13:55.718Z,23.60
2018-12-19T12:16:23.893Z,24.73
2018-12-19T12:18:52.219Z,25.93
2018-12-19T12:21:20.666Z,23.97
2018-12-19T12:23:48.977Z,22.67
2018-12-19T12:26:17.207Z,20.57
2018-12-19T12:28:45.461Z,21.87
2018-12-19T12:31:13.690Z,25.73
2018-12-19T12:33:42.119Z,23.00
2018-12-19T12:36:10.580Z,24.87
2018-12-19T12:38:38.974Z,25.57
2018-12-19T12:41:07.305Z,26.60
2018-12-19T12:43:36.337Z,24.30
2018-12-19T12:46:04.608Z,25.47
2018-12-19T12:48:32.961Z,23.30
2018-12-19T12:51:01.341Z,28.33
2018-12-19T12:53:29.513Z,22.73
2018-12-19T12:55:57.740Z,22.00
2018-12-19T12:58:26.215Z,23.23
2018-12-19T13:00:54.761Z,23.90
2018-12-19T13:03:23.095Z,20.47
2018-12-19T13:05:51.457Z,24.70
2018-12-19T13:08:19.691Z,23.47
2018-12-19T13:10:47.984Z,22.30
2018-12-19T13:13:16.242Z,25.37
2018-12-19T13:15:48.926Z,22.53
2018-12-19T13:18:17.190Z,21.57
2018-12-19T13:20:45.462Z,25.63
2018-12-19T13:23:13.728Z,21.53
2018-12-19T13:25:41.905Z,25.80
2018-12-19T13:28:10.683Z,21.97
2018-12-19T13:30:38.812Z,24.03
2018-12-19T13:33:07.024Z,25.23
2018-12-19T13:35:35.260Z,24.20
2018-12-19T13:38:03.452Z,22.33
2018-12-19T13:40:31.625Z,24.60
2018-12-19T13:42:59.778Z,25.13
2018-12-19T13:45:27.968Z,28.53
2018-12-19T13:47:56.101Z,25.53
2018-12-19T13:50:25.001Z,26.00
2018-12-19T13:52:53.265Z,26.97
2018-12-19T13:55:21.584Z,26.70
2018-12-19T13:57:49.756Z,22.60
2018-12-19T14:00:20.965Z,23.43
2018-12-19T14:02:49.104Z,24.43
2018-12-19T14:05:17.487Z,21.43
2018-12-19T14:07:45.634Z,22.23
2018-12-19T14:10:14.004Z,20.00
2018-12-19T14:12:42.224Z,24.10
2018-12-19T14:15:10.621Z,21.30
2018-12-19T14:17:38.903Z,23.80
2018-12-19T14:20:08.011Z,22.73
2018-12-19T14:22:36.191Z,24.23
2018-12-19T14:25:04.782Z,20.03
2018-12-19T14:27:32.915Z,31.23
2018-12-19T14:30:01.145Z,26.67
2018-12-19T14:32:29.343Z,24.13
2018-12-19T14:34:57.520Z,32.27
2018-12-19T14:37:25.863Z,26.17
2018-12-19T14:39:54.175Z,24.17
2018-12-19T14:42:22.328Z,26.97
2018-12-19T14:44:50.530Z,24.53
2018-12-19T14:47:18.694Z,25.30
2018-12-19T14:49:46.905Z,26.37
2018-12-19T14:52:15.082Z,27.43
2018-12-19T14:54:43.325Z,29.07
2018-12-19T14:57:11.542Z,27.40
2018-12-19T14:59:39.895Z,30.80
2018-12-19T15:02:08.164Z,27.30
2018-12-19T15:04:36.363Z,29.93
2018-12-19T15:07:04.597Z,28.53
2018-12-19T15:09:32.792Z,32.70
2018-12-19T15:12:01.000Z,28.07
2018-12-19T15:14:29.155Z,28.10
2018-12-19T15:16:57.428Z,32.33
2018-12-19T15:19:25.617Z,28.77
2018-12-19T15:21:53.764Z,27.77
2018-12-19T15:24:22.048Z,27.03
2018-12-19T15:26:50.199Z,27.03
2018-12-19T15:29:18.460Z,27.73
2018-12-19T15:31:46.688Z,28.73
2018-12-19T15:34:14.884Z,29.93
2018-12-19T15:36:43.100Z,31.43
2018-12-19T15:39:11.315Z,27.10
2018-12-19T15:41:39.453Z,34.83
2018-12-19T15:44:07.648Z,29.37
2018-12-19T15:46:35.899Z,28.70
2018-12-19T15:49:04.668Z,32.03
2018-12-19T15:51:32.990Z,29.57
2018-12-19T15:54:01.453Z,31.77
2018-12-19T15:56:29.588Z,28.40
2018-12-19T15:58:58.177Z,29.93
2018-12-19T16:01:26.395Z,30.90
2018-12-19T16:03:54.583Z,26.50
2018-12-19T16:06:23.110Z,28.10
2018-12-19T16:08:51.373Z,31.23
2018-12-19T16:11:19.676Z,28.60
2018-12-19T16:13:47.849Z,28.97
2018-12-19T16:16:16.083Z,30.40
2018-12-19T16:18:44.463Z,32.07
2018-12-19T16:21:12.785Z,29.37
2018-12-19T16:23:40.993Z,25.63
2018-12-19T16:26:09.250Z,26.90
2018-12-19T16:28:37.524Z,25.73
2018-12-19T16:31:05.812Z,30.40
2018-12-19T16:33:33.959Z,30.60
2018-12-19T16:36:02.389Z,28.03
2018-12-19T16:38:30.651Z,30.30
2018-12-19T16:40:59.095Z,27.93
2018-12-19T16:43:27.658Z,31.17
2018-12-19T16:45:55.893Z,26.10
2018-12-19T16:48:24.030Z,31.17
2018-12-19T16:50:52.180Z,26.53
2018-12-19T16:53:20.784Z,27.90
2018-12-19T16:55:49.514Z,28.07
2018-12-19T16:58:17.771Z,35.40
2018-12-19T17:00:46.064Z,32.93
2018-12-19T17:03:14.268Z,31.93
2018-12-19T17:05:42.426Z,31.43
2018-12-19T17:08:10.749Z,33.10
2018-12-19T17:10:39.180Z,31.30
2018-12-19T17:13:07.650Z,29.73
2018-12-19T17:15:36.109Z,33.70
2018-12-19T17:18:04.539Z,34.50
2018-12-19T17:20:39.913Z,35.30
2018-12-19T17:23:08.219Z,29.80
2018-12-19T17:25:36.376Z,33.23
2018-12-19T17:28:04.640Z,30.57
2018-12-19T17:30:32.899Z,30.73
2018-12-19T17:33:01.103Z,31.67
2018-12-19T17:35:29.424Z,32.57
2018-12-19T17:37:57.656Z,34.13
2018-12-19T17:40:25.854Z,30.60
2018-12-19T17:42:59.408Z,32.53
2018-12-19T17:45:24.260Z,34.40
2018-12-19T17:47:52.427Z,32.10
2018-12-19T17:50:20.571Z,34.43
2018-12-19T17:52:48.742Z,36.97
2018-12-19T17:55:16.920Z,44.43
2018-12-19T17:57:45.158Z,45.63
2018-12-19T18:00:13.473Z,45.03
2018-12-19T18:02:41.732Z,41.60
2018-12-19T18:05:10.154Z,37.70
2018-12-19T18:07:38.323Z,37.07
2018-12-19T18:10:06.789Z,38.83
2018-12-19T18:12:35.070Z,43.53
2018-12-19T18:15:03.725Z,41.07
2018-12-19T18:17:32.239Z,42.17
2018-12-19T18:20:00.421Z,41.93
2018-12-19T18:22:28.566Z,41.83
2018-12-19T18:24:56.723Z,39.23
2018-12-19T18:27:24.951Z,39.70
2018-12-19T18:29:53.196Z,43.00
2018-12-19T18:32:21.333Z,37.30
2018-12-19T18:34:49.558Z,36.27
2018-12-19T18:37:17.799Z,37.00
2018-12-19T18:39:45.977Z,34.23
2018-12-19T18:42:14.151Z,38.03
2018-12-19T18:44:42.418Z,33.30
2018-12-19T18:47:10.647Z,33.00
2018-12-19T18:49:38.882Z,32.23
2018-12-19T18:52:07.019Z,29.87
2018-12-19T18:54:35.194Z,31.90
2018-12-19T18:57:03.412Z,34.83
2018-12-19T18:59:31.611Z,27.83
2018-12-19T19:01:59.807Z,22.60
2018-12-19T19:04:28.139Z,29.67
2018-12-19T19:06:56.314Z,40.97
2018-12-19T19:09:24.525Z,34.83
2018-12-19T19:11:52.758Z,28.37
2018-12-19T19:14:20.984Z,23.70
2018-12-19T19:16:49.277Z,25.87
2018-12-19T19:19:17.489Z,39.37
2018-12-19T19:21:45.653Z,37.07
2018-12-19T19:24:13.792Z,39.73
2018-12-19T19:26:42.053Z,31.50
2018-12-19T19:29:10.288Z,41.13
2018-12-19T19:31:38.694Z,36.27
2018-12-19T19:34:06.884Z,35.60
2018-12-19T19:36:35.139Z,40.27
2018-12-19T19:39:05.372Z,37.90
2018-12-19T19:41:33.563Z,31.97
2018-12-19T19:44:01.791Z,30.40
2018-12-19T19:46:29.963Z,31.13
2018-12-19T19:48:58.290Z,35.10
2018-12-19T19:51:26.461Z,38.23
2018-12-19T19:53:54.620Z,37.83
2018-12-19T19:56:22.886Z,44.13
2018-12-19T19:58:51.254Z,42.37
2018-12-19T20:01:19.940Z,34.93
2018-12-19T20:03:48.101Z,26.03
2018-12-19T20:06:18.129Z,27.87
2018-12-19T20:08:46.282Z,27.43
2018-12-19T20:11:14.594Z,26.93
2018-12-19T20:13:42.840Z,33.00
2018-12-19T20:16:11.030Z,32.43
2018-12-19T20:18:39.207Z,35.90
2018-12-19T20:21:07.559Z,34.37
2018-12-19T20:23:35.809Z,39.53
2018-12-19T20:26:04.507Z,34.67
2018-12-19T20:28:32.709Z,35.30
2018-12-19T20:31:01.045Z,42.80
2018-12-19T20:33:29.282Z,37.60
2018-12-19T20:35:57.688Z,32.93
2018-12-19T20:38:25.859Z,32.37
2018-12-19T20:40:54.112Z,35.87
2018-12-19T20:43:22.278Z,45.57
2018-12-19T20:45:50.709Z,40.37
2018-12-19T20:48:25.434Z,46.50
2018-12-19T20:50:53.921Z,42.67
2018-12-19T20:53:22.129Z,43.53
2018-12-19T20:55:50.470Z,35.07
2018-12-19T20:58:19.204Z,36.57
2018-12-19T21:00:47.585Z,32.47
2018-12-19T21:03:16.005Z,30.17
2018-12-19T21:05:44.221Z,32.30
2018-12-19T21:08:12.419Z,32.63
2018-12-19T21:10:40.750Z,24.07
2018-12-19T21:13:08.952Z,25.47
2018-12-19T21:15:37.106Z,27.20
2018-12-19T21:18:10.784Z,28.50
2018-12-19T21:20:39.008Z,28.70
2018-12-19T21:23:07.188Z,22.33
2018-12-19T21:25:35.420Z,32.37
2018-12-19T21:28:03.716Z,24.80
2018-12-19T21:30:31.927Z,13.93
2018-12-19T21:33:00.066Z,14.87
2018-12-19T21:35:28.305Z,12.90
2018-12-19T21:37:56.546Z,13.43
2018-12-19T21:40:24.694Z,20.17
2018-12-19T21:42:53.089Z,23.10
2018-12-19T21:45:21.343Z,24.20
2018-12-19T21:47:49.660Z,23.03
2018-12-19T21:50:17.879Z,26.70
2018-12-19T21:52:46.093Z,26.70
2018-12-19T21:55:14.399Z,24.07
2018-12-19T21:57:42.692Z,19.33
2018-12-19T22:00:17.493Z,18.83
2018-12-19T22:02:45.717Z,17.47
2018-12-19T22:05:13.926Z,17.53
2018-12-19T22:07:42.259Z,15.17
2018-12-19T22:10:10.583Z,16.20
2018-12-19T22:12:38.929Z,16.63
2018-12-19T22:15:07.330Z,16.00
2018-12-19T22:17:41.082Z,13.23
2018-12-19T22:20:09.485Z,13.90
2018-12-19T22:22:37.751Z,14.93
2018-12-19T22:25:06.073Z,15.63
2018-12-19T22:27:34.475Z,14.47
2018-12-19T22:30:02.825Z,15.40
2018-12-19T22:32:31.068Z,21.53
2018-12-19T22:34:59.203Z,29.47
2018-12-19T22:37:27.388Z,26.50
2018-12-19T22:39:55.699Z,32.60
2018-12-19T22:42:23.964Z,27.90
2018-12-19T22:44:52.160Z,27.13
2018-12-19T22:47:21.695Z,27.10
2018-12-19T22:49:50.055Z,24.77
2018-12-19T22:52:18.263Z,27.73
2018-12-19T22:54:46.496Z,26.43
2018-12-19T22:57:14.678Z,27.50
2018-12-19T22:59:42.903Z,30.23
2018-12-19T23:02:16.400Z,32.47
2018-12-19T23:04:44.703Z,30.07
2018-12-19T23:07:12.965Z,25.70
2018-12-19T23:09:41.302Z,29.33
2018-12-19T23:12:09.524Z,31.40
2018-12-19T23:14:37.761Z,28.67
2018-12-19T23:17:11.319Z,28.97
2018-12-19T23:19:39.549Z,34.90
2018-12-19T23:22:07.914Z,30.20
2018-12-19T23:24:36.186Z,24.43
2018-12-19T23:27:04.657Z,28.57
2018-12-19T23:29:32.824Z,25.87
2018-12-19T23:32:01.138Z,25.47
2018-12-19T23:34:29.504Z,20.10
2018-12-19T23:36:57.780Z,19.07
2018-12-19T23:39:26.028Z,16.87
2018-12-19T23:41:54.283Z,22.27
2018-12-19T23:44:28.032Z,35.17
2018-12-19T23:46:57.680Z,29.97
2018-12-19T23:49:26.010Z,30.33
2018-12-19T23:51:54.374Z,27.70
2018-12-19T23:54:28.858Z,21.30
2018-12-19T23:56:52.934Z,19.83
2018-12-19T23:59:21.185Z,19.50
